Lær å fly hos oss!

Oslo Flyveklubb har i mange år utdannet flygere til privatflygersetifikat PPL(A). Skolen har godkjenning for å drive utdanning til teoriundervisning til PPL(A), privatflygersertifikat PPL (A) og mørkeflyging.

Gi bort en flytur i gave

På en introduksjonstur vil kandidaten være med på forberedelser til, og gjennomføring av en flytur på en times varighet med en av våre instruktører.

Hvor vi holder til?

Flyplassen ligger i Lillestrøm 10 minutter med tog fra Oslo. Følg storgata fra Lillestrøms sentrum så vill man se plassen på venstre side.
1 month ago

Rakk heldigvis en flott flytur med seljo før juleferien! God Jul!

LIKE
LOVE
HAHA
WOW
SAD
ANGRY
Metar/TAF Gardermoen:

ENGM 230250Z 00000KT 9999 OVC019 M06/M08 Q1014

TAF ENGM 221700Z 2218/2318 VRB05KT 9999 -SN OVC008 TEMPO 2218/2224 BKN004 TEMPO 2300/2305 FEW010 BKN030 BECMG 2304/2306 4000 -SN TEMPO 2305/2318 1200 SN VV002 BECMG 2308/2310 16010KT